HB9FED Weather Reports


Display with metric or nautical units.
time (UTC)temp
F
wind
direction
speed
MPH
gust
MPH
rain 1hr
in
rain 24hr
in
rain mn
in
humidity
%
barometer
mb
20221006014704 50 293 0.0 0.0 0.00 0.00 0.00 80 1012.8
20221006013205 50 293 0.0 2.0 0.00 0.00 0.00 81 1012.8
20221006011705 50 180 1.0 2.0 0.00 0.00 0.00 81 1012.7
20221006010226 50 225 0.0 0.0 0.00 0.00 0.00 82 1012.7
20221006003205 51 45 0.0 0.0 0.00 0.00 0.00 81 1012.3
20221006001706 51 293 0.0 2.0 0.00 0.00 0.00 81 1012.5
20221006000230 51 248 0.0 0.0 0.00 0.00 0.00 81 1012.2
20221005234706 51 203 0.0 2.0 0.00 0.00 0.00 81 1012.1
20221005230205 52 248 0.0 2.0 0.00 0.00 0.00 81 1012.0
20221005224705 53 293 1.0 3.0 0.00 0.00 0.00 81 1012.0
20221005223206 53 270 1.0 3.0 0.00 0.00 0.00 81 1011.6
20221005221707 53 293 0.0 2.0 0.00 0.00 0.00 81 1011.6
20221005220205 53 293 0.0 2.0 0.00 0.00 0.00 81 1011.9
20221005214705 54 315 1.0 4.0 0.00 0.00 0.00 80 1011.6
20221005213204 54 293 0.0 2.0 0.00 0.00 0.00 80 1011.6
20221005210205 55 225 0.0 4.0 0.00 0.00 0.00 79 1011.2
20221005204707 55 338 1.0 3.0 0.00 0.00 0.00 79 1011.2
20221005203206 55 248 1.0 4.0 0.00 0.00 0.00 79 1010.8
20221005201705 56 225 1.0 3.0 0.00 0.00 0.00 79 1010.6
20221005200204 56 23 0.0 0.0 0.00 0.00 0.00 78 1010.4
20221005194705 57 248 0.0 2.0 0.00 0.00 0.00 78 1010.1
20221005193204 57 248 1.0 2.0 0.00 0.00 0.00 78 1010.1
20221005191705 58 270 1.0 3.0 0.00 0.00 0.00 77 1009.9
20221005190225 58 338 2.0 4.0 0.00 0.00 0.00 77 1009.5
20221005184707 59 293 2.0 2.0 0.00 0.00 0.00 77 1009.5
20221005183205 60 248 2.0 3.0 0.00 0.00 0.00 77 1009.2
20221005181705 61 270 2.0 4.0 0.00 0.00 0.00 76 1009.1
20221005174706 62 248 1.0 4.0 0.00 0.00 0.00 75 1008.4
20221005173207 62 248 3.0 4.0 0.00 0.00 0.00 75 1008.4
20221005170228 64 270 2.0 4.0 0.00 0.00 0.00 72 1007.8
20221005164705 65 293 2.0 5.0 0.00 0.00 0.00 72 1007.8
20221005163206 66 248 3.0 4.0 0.00 0.00 0.00 71 1007.3
20221005161707 67 248 4.0 6.0 0.00 0.00 0.00 70 1007.2
20221005160205 68 293 4.0 7.0 0.00 0.00 0.00 70 1007.1
20221005154733 69 270 4.0 4.0 0.00 0.00 0.00 69 1007.0
20221005153204 70 248 3.0 4.0 0.00 0.00 0.00 68 1007.0
20221005150205 70 68 0.0 2.0 0.00 0.00 0.00 58 1006.8
20221005144705 71 338 0.0 0.0 0.00 0.00 0.00 57 1006.8
20221005143204 71 248 0.0 3.0 0.00 0.00 0.00 58 1007.1
20221005141705 71 180 1.0 3.0 0.00 0.00 0.00 58 1007.1
20221005140204 71 0 0.0 4.0 0.00 0.00 0.00 58 1007.2
20221005134705 71 113 1.0 2.0 0.00 0.00 0.00 58 1007.1
20221005133205 71 0 3.0 7.0 0.00 0.00 0.00 58 1007.1
20221005131705 71 68 2.0 9.0 0.00 0.00 0.00 58 1007.4
20221005130223 71 45 3.0 4.0 0.00 0.00 0.00 58 1007.5
20221005123207 71 68 1.0 6.0 0.00 0.00 0.00 61 1007.8
20221005120232 72 0 1.0 3.0 0.00 0.00 0.00 65 1008.1
20221005111705 68 135 3.0 8.0 0.00 0.00 0.00 74 1008.2
20221005110234 67 90 3.0 5.0 0.00 0.00 0.00 74 1008.4
20221005104705 67 45 2.0 6.0 0.00 0.00 0.00 75 1008.4
20221005103205 65 68 3.0 6.0 0.00 0.00 0.00 76 1008.5
20221005101705 64 68 2.0 6.0 0.00 0.00 0.00 80 1008.6
20221005100204 62 0 2.0 6.0 0.00 0.00 0.00 82 1008.7